Time;durP1;ratioP1;P1;durP2;ratioP2;P2;SDS_P1;SDS_P2;PMS_P1;PMS_P2;Temp;Humidity;BMP_temperature;BMP_pressure;BME280_temperature;BME280_humidity;BME280_pressure;Samples;Min_cycle;Max_cycle;Signal;HPM_P1;HPM_P2
2022/07/05 00:00:40;;;;;;;6.03;4.72;;;;;;;17.38;100.00;96513.03;4895425;29;20500;-78
2022/07/05 00:03:08;;;;;;;6.72;4.80;;;;;;;17.46;100.00;96521.09;4894851;29;20139;-78
2022/07/05 00:05:35;;;;;;;7.38;5.50;;;;;;;17.32;100.00;96509.75;4895388;29;20051;-78
2022/07/05 00:08:01;;;;;;;10.30;5.60;;;;;;;17.14;100.00;96503.06;4895220;29;20052;-74
2022/07/05 00:10:28;;;;;;;7.43;5.88;;;;;;;17.16;100.00;96500.72;4895026;29;20085;-79
2022/07/05 00:12:54;;;;;;;10.50;6.00;;;;;;;17.15;100.00;96499.13;4895306;29;20049;-80
2022/07/05 00:15:21;;;;;;;9.18;6.28;;;;;;;17.15;100.00;96505.44;4894973;29;20049;-79
2022/07/05 00:17:48;;;;;;;6.90;5.90;;;;;;;17.01;100.00;96498.78;4895326;29;20044;-78
2022/07/05 00:20:16;;;;;;;8.80;6.25;;;;;;;16.88;100.00;96501.66;4894708;29;20049;-78
2022/07/05 00:22:42;;;;;;;8.10;5.80;;;;;;;16.87;100.00;96505.56;4895346;29;20056;-80
2022/07/05 00:25:09;;;;;;;11.13;6.43;;;;;;;16.90;100.00;96496.56;4894579;29;20044;-79
2022/07/05 00:27:36;;;;;;;11.45;6.50;;;;;;;16.86;100.00;96503.97;4895428;29;20055;-78
2022/07/05 00:30:04;;;;;;;13.43;6.75;;;;;;;16.92;100.00;96502.53;4894397;29;20485;-78
2022/07/05 00:32:30;;;;;;;11.07;7.32;;;;;;;16.86;100.00;96501.22;4895106;29;20044;-79
2022/07/05 00:34:57;;;;;;;11.63;7.05;;;;;;;16.94;100.00;96500.22;4895219;29;20052;-78
2022/07/05 00:37:25;;;;;;;11.13;6.80;;;;;;;17.01;100.00;96498.78;4894848;29;20093;-80
2022/07/05 00:39:52;;;;;;;13.82;7.97;;;;;;;17.07;100.00;96502.84;4895247;29;20058;-79
2022/07/05 00:42:18;;;;;;;10.13;7.32;;;;;;;17.10;100.00;96491.16;4894588;29;20055;-78
2022/07/05 00:44:45;;;;;;;13.50;7.88;;;;;;;17.19;100.00;96489.03;4895153;29;20112;-79
2022/07/05 00:47:13;;;;;;;11.35;7.90;;;;;;;17.24;100.00;96486.00;4913310;29;20063;-79
2022/07/05 00:49:42;;;;;;;12.38;8.13;;;;;;;17.18;100.00;96487.44;4917648;29;20055;-79
2022/07/05 00:52:09;;;;;;;10.95;8.27;;;;;;;17.25;100.00;96482.09;4917238;29;20063;-77
2022/07/05 00:54:39;;;;;;;11.52;8.27;;;;;;;17.14;100.00;96476.34;4917359;29;20047;-79
2022/07/05 00:57:06;;;;;;;10.73;8.27;;;;;;;17.18;100.00;96481.94;4917180;29;20051;-78
2022/07/05 00:59:35;;;;;;;12.43;8.52;;;;;;;17.20;100.00;96485.09;4917566;29;20040;-78
2022/07/05 01:02:02;;;;;;;10.90;8.70;;;;;;;17.31;100.00;96485.34;4917174;29;20044;-78
2022/07/05 01:04:28;;;;;;;11.30;8.60;;;;;;;17.19;100.00;96483.53;4917392;29;20056;-78
2022/07/05 01:06:55;;;;;;;12.30;8.02;;;;;;;17.25;100.00;96484.03;4917701;29;20079;-80
2022/07/05 01:09:24;;;;;;;11.77;8.10;;;;;;;17.36;100.00;96488.63;4917007;29;20079;-78
2022/07/05 01:11:52;;;;;;;10.45;8.27;;;;;;;17.20;100.00;96487.84;4917305;29;20044;-78
2022/07/05 01:14:20;;;;;;;12.90;8.18;;;;;;;17.13;100.00;96485.75;4916842;29;20052;-78
2022/07/05 01:16:47;;;;;;;13.18;8.82;;;;;;;17.07;100.00;96481.69;4905513;29;20052;-79
2022/07/05 01:19:14;;;;;;;12.70;8.27;;;;;;;17.22;100.00;96477.28;4897816;29;20049;-79
2022/07/05 01:21:42;;;;;;;11.73;8.65;;;;;;;17.24;100.00;96480.50;4898188;29;20041;-79
2022/07/05 01:24:11;;;;;;;10.13;8.50;;;;;;;17.22;100.00;96477.28;4897886;29;20472;-79
2022/07/05 01:26:39;;;;;;;10.60;8.30;;;;;;;17.22;100.00;96480.03;4898113;29;20142;-78
2022/07/05 01:29:06;;;;;;;11.60;7.35;;;;;;;17.32;100.00;96490.50;4897850;29;20049;-79
2022/07/05 01:31:32;;;;;;;12.27;7.78;;;;;;;17.43;100.00;96488.78;4897924;29;20096;-80
2022/07/05 01:33:59;;;;;;;10.73;6.93;;;;;;;17.41;100.00;96482.06;4898050;29;20051;-78
2022/07/05 01:36:26;;;;;;;10.65;6.90;;;;;;;17.33;100.00;96483.84;4897466;29;20056;-79
2022/07/05 01:38:53;;;;;;;9.02;5.97;;;;;;;17.23;100.00;96478.91;4897839;29;20420;-79
2022/07/05 01:41:21;;;;;;;8.30;5.85;;;;;;;17.27;100.00;96478.97;4897448;29;20500;-79
2022/07/05 01:43:47;;;;;;;10.45;5.03;;;;;;;17.14;100.00;96481.03;4897327;29;20096;-78
2022/07/05 01:46:18;;;;;;;7.15;4.55;;;;;;;17.32;100.00;96484.19;4897208;29;20052;-78
2022/07/05 01:48:45;;;;;;;7.35;4.13;;;;;;;17.20;100.00;96485.09;4897917;29;20097;-79
2022/07/05 01:51:19;;;;;;;6.30;4.13;;;;;;;17.19;100.00;96483.53;4897086;29;20511;-78
2022/07/05 01:53:50;;;;;;;10.95;4.40;;;;;;;17.06;100.00;96484.75;4897751;29;20501;-78
2022/07/05 01:56:17;;;;;;;6.38;4.57;;;;;;;17.10;100.00;96480.94;4897091;29;20052;-78
2022/07/05 01:58:46;;;;;;;9.15;4.18;;;;;;;17.07;100.00;96483.59;4896958;29;20048;-79
2022/07/05 02:01:13;;;;;;;4.90;4.40;;;;;;;16.93;100.00;96482.13;4897052;29;20505;-78
2022/07/05 02:03:40;;;;;;;8.75;4.35;;;;;;;16.73;100.00;96483.19;4897615;29;20056;-78
2022/07/05 02:06:08;;;;;;;7.88;4.60;;;;;;;16.80;100.00;96477.84;4896969;29;20524;-77
2022/07/05 02:08:35;;;;;;;10.65;4.60;;;;;;;16.79;100.00;96478.22;4897646;29;20071;-79
2022/07/05 02:11:01;;;;;;;8.82;4.68;;;;;;;16.85;100.00;96491.34;4896846;29;20600;-76
2022/07/05 02:13:28;;;;;;;13.75;5.45;;;;;;;16.70;100.00;96483.84;4897493;29;20449;-77
2022/07/05 02:15:55;;;;;;;9.68;5.28;;;;;;;16.71;100.00;96488.25;4897444;29;20075;-79
2022/07/05 02:18:22;;;;;;;8.55;5.78;;;;;;;16.77;100.00;96481.34;4897058;29;20060;-78
2022/07/05 02:20:48;;;;;;;11.30;5.38;;;;;;;16.73;100.00;96483.19;4896377;29;20047;-78
2022/07/05 02:23:15;;;;;;;7.97;5.60;;;;;;;16.69;100.00;96483.06;4896546;29;20550;-79
2022/07/05 02:25:42;;;;;;;10.93;5.40;;;;;;;16.65;100.00;96493.19;4896998;29;20044;-78
2022/07/05 02:28:08;;;;;;;11.82;5.78;;;;;;;16.66;100.00;96493.97;4896665;29;20065;-79
2022/07/05 02:30:35;;;;;;;9.98;5.93;;;;;;;16.66;100.00;96488.50;4896884;29;20602;-79
2022/07/05 02:33:03;;;;;;;6.55;4.75;;;;;;;16.70;100.00;96494.84;4896645;29;20055;-77
2022/07/05 02:35:29;;;;;;;6.50;4.88;;;;;;;16.68;100.00;96499.91;4896510;29;20056;-79
2022/07/05 02:37:56;;;;;;;6.75;5.00;;;;;;;16.83;100.00;96493.66;4896801;29;20485;-79
2022/07/05 02:40:22;;;;;;;7.88;5.20;;;;;;;16.80;100.00;96494.34;4896176;29;20044;-81
2022/07/05 02:42:49;;;;;;;8.25;5.25;;;;;;;16.71;100.00;96502.00;4896638;29;20058;-78
2022/07/05 02:45:15;;;;;;;10.45;6.20;;;;;;;16.76;100.00;96493.50;4896389;29;20048;-79
2022/07/05 02:47:42;;;;;;;10.50;6.40;;;;;;;16.81;100.00;96493.22;4897175;29;20052;-79
2022/07/05 02:50:11;;;;;;;9.13;5.28;;;;;;;16.88;100.00;96500.84;4896025;29;20053;-78
2022/07/05 02:52:38;;;;;;;11.18;6.13;;;;;;;16.78;100.00;96502.16;4896343;29;20056;-78
2022/07/05 02:55:06;;;;;;;6.78;5.40;;;;;;;16.75;100.00;96502.06;4896039;29;20056;-78
2022/07/05 02:57:32;;;;;;;7.25;5.43;;;;;;;16.65;100.00;96497.88;4896709;29;20442;-80
2022/07/05 02:59:59;;;;;;;9.27;5.47;;;;;;;16.76;100.00;96507.25;4896580;29;20045;-79
2022/07/05 03:02:25;;;;;;;7.20;5.70;;;;;;;16.74;100.00;96505.97;4896239;29;20046;-79
2022/07/05 03:04:52;;;;;;;7.88;5.97;;;;;;;16.83;100.00;96503.88;4896177;29;20523;-79
2022/07/05 03:10:42;;;;;;;13.05;5.90;;;;;;;16.73;100.00;96513.44;4901912;29;20496;-78
2022/07/05 03:13:08;;;;;;;14.20;6.30;;;;;;;16.67;100.00;96512.06;4914898;29;20040;-79
2022/07/05 03:15:35;;;;;;;10.90;6.00;;;;;;;16.77;100.00;96514.34;4915191;29;20055;-78
2022/07/05 03:18:01;;;;;;;7.60;6.80;;;;;;;16.80;100.00;96519.09;4914448;29;20043;-78
2022/07/05 03:20:28;;;;;;;13.10;6.30;;;;;;;16.75;100.00;96513.88;4914709;29;20059;-79
2022/07/05 03:22:54;;;;;;;7.13;5.53;;;;;;;16.92;100.00;96512.75;4914952;29;20519;-79
2022/07/05 03:25:21;;;;;;;6.32;5.38;;;;;;;16.85;100.00;96518.84;4914138;29;21008;-79
2022/07/05 03:27:49;;;;;;;10.05;5.82;;;;;;;16.84;100.00;96511.75;4914973;29;20388;-79
2022/07/05 03:30:15;;;;;;;6.88;5.28;;;;;;;16.78;100.00;96513.16;4914481;29;20071;-79
2022/07/05 03:32:42;;;;;;;6.30;5.70;;;;;;;16.87;100.00;96511.06;4914660;29;20068;-79
2022/07/05 03:35:08;;;;;;;10.30;6.40;;;;;;;16.91;100.00;96520.19;4914374;29;20052;-80
2022/07/05 03:37:35;;;;;;;8.52;5.82;;;;;;;16.98;100.00;96516.81;4914599;29;20393;-78
2022/07/05 03:40:02;;;;;;;8.32;5.68;;;;;;;17.14;100.00;96519.56;4912444;29;20056;-78
2022/07/05 03:42:28;;;;;;;7.25;5.20;;;;;;;17.21;100.00;96515.00;4914732;29;20067;-78
2022/07/05 03:44:56;;;;;;;6.93;5.43;;;;;;;17.26;100.00;96515.91;4914745;29;20066;-79
2022/07/05 03:47:23;;;;;;;5.70;5.07;;;;;;;17.09;100.00;96511.56;4914200;29;20613;-79
2022/07/05 03:49:49;;;;;;;8.63;5.47;;;;;;;16.99;100.00;96512.13;4914748;29;20039;-79
2022/07/05 03:52:15;;;;;;;11.15;5.50;;;;;;;16.94;100.00;96513.97;4913729;29;20060;-79
2022/07/05 03:54:44;;;;;;;5.95;5.35;;;;;;;16.98;100.00;96513.28;4914260;29;20040;-79
2022/07/05 03:57:10;;;;;;;10.45;5.68;;;;;;;16.99;100.00;96520.38;4914027;29;20052;-79
2022/07/05 03:59:37;;;;;;;5.95;5.07;;;;;;;17.03;100.00;96527.56;4914364;29;20044;-79
2022/07/05 04:02:05;;;;;;;9.70;5.70;;;;;;;16.99;100.00;96517.63;4913989;29;20056;-79
2022/07/05 04:04:31;;;;;;;6.93;4.93;;;;;;;17.14;100.00;96514.84;4914285;29;20537;-79
2022/07/05 04:06:58;;;;;;;6.68;5.00;;;;;;;17.28;100.00;96525.41;4914328;29;20048;-79
2022/07/05 04:09:24;;;;;;;7.38;4.90;;;;;;;17.33;100.00;96533.41;4913628;29;20052;-80
2022/07/05 04:11:50;;;;;;;6.25;4.38;;;;;;;17.36;100.00;96535.41;4912508;29;20040;-79
2022/07/05 04:14:17;;;;;;;8.57;5.22;;;;;;;17.37;100.00;96534.25;4904170;29;20508;-79
2022/07/05 04:16:43;;;;;;;7.18;5.25;;;;;;;17.30;100.00;96539.59;4913172;29;20044;-80
2022/07/05 04:19:11;;;;;;;9.60;5.03;;;;;;;17.32;100.00;96540.03;4913565;29;20048;-79
2022/07/05 04:21:37;;;;;;;8.77;4.63;;;;;;;17.40;100.00;96532.75;4913648;29;20047;-80
2022/07/05 04:24:05;;;;;;;6.28;5.32;;;;;;;17.47;100.00;96539.22;4913659;29;20079;-79
2022/07/05 04:26:31;;;;;;;7.20;4.43;;;;;;;17.56;100.00;96538.22;4914037;29;20048;-79
2022/07/05 04:28:57;;;;;;;11.00;5.38;;;;;;;17.47;100.00;96528.19;4914447;29;20066;-79
2022/07/05 04:31:24;;;;;;;9.38;5.53;;;;;;;17.31;100.00;96541.19;4913414;29;20048;-79
2022/07/05 04:33:51;;;;;;;8.52;5.32;;;;;;;17.31;100.00;96535.69;4914035;29;20051;-79
2022/07/05 04:36:19;;;;;;;6.30;4.85;;;;;;;17.38;100.00;96537.81;4913431;29;20596;-79
2022/07/05 04:38:45;;;;;;;7.97;4.57;;;;;;;17.45;100.00;96538.78;4913978;29;20044;-81
2022/07/05 04:41:12;;;;;;;5.57;4.63;;;;;;;17.53;100.00;96547.19;4911764;29;20048;-79
2022/07/05 04:43:38;;;;;;;9.95;4.95;;;;;;;17.48;100.00;96540.00;4913901;29;20055;-79
2022/07/05 04:46:05;;;;;;;7.72;5.03;;;;;;;17.48;100.00;96551.03;4913412;29;20048;-79
2022/07/05 04:48:31;;;;;;;11.75;5.60;;;;;;;17.47;100.00;96547.47;4913821;29;20051;-80
2022/07/05 04:50:59;;;;;;;6.13;4.90;;;;;;;17.53;100.00;96552.72;4913888;29;20052;-79
2022/07/05 04:53:26;;;;;;;7.55;4.80;;;;;;;17.43;100.00;96546.59;4913304;29;20052;-79
2022/07/05 04:55:53;;;;;;;6.35;4.93;;;;;;;17.53;100.00;96547.19;4903512;29;20463;-79
2022/07/05 04:58:20;;;;;;;8.02;4.47;;;;;;;17.61;100.00;96555.28;4913242;29;20051;-81
2022/07/05 05:00:47;;;;;;;10.50;5.20;;;;;;;17.68;100.00;96549.13;4914039;29;20040;-79
2022/07/05 05:03:13;;;;;;;8.30;4.47;;;;;;;17.50;100.00;96545.19;4913510;29;20056;-79
2022/07/05 05:05:39;;;;;;;8.18;4.95;;;;;;;17.63;100.00;96547.44;4913691;29;20048;-78
2022/07/05 05:08:06;;;;;;;11.85;5.07;;;;;;;17.63;100.00;96552.16;4913554;29;20055;-80
2022/07/05 05:10:34;;;;;;;9.35;4.95;;;;;;;17.56;100.00;96544.53;4912257;29;20051;-79
2022/07/05 05:13:00;;;;;;;11.40;5.35;;;;;;;17.48;100.00;96549.06;4914038;29;20040;-79
2022/07/05 05:15:27;;;;;;;8.13;5.15;;;;;;;17.30;100.00;96545.09;4913494;29;20048;-81
2022/07/05 05:17:53;;;;;;;5.80;5.03;;;;;;;17.48;100.00;96549.06;4913820;29;20411;-79
2022/07/05 05:20:20;;;;;;;10.35;4.97;;;;;;;17.54;100.00;96549.63;4913286;29;20048;-79
2022/07/05 05:22:47;;;;;;;7.72;4.80;;;;;;;17.59;100.00;96551.28;4914213;29;20044;-79
2022/07/05 05:25:14;;;;;;;9.05;5.43;;;;;;;17.54;100.00;96548.78;4913681;29;20419;-80
2022/07/05 05:27:43;;;;;;;6.93;4.90;;;;;;;17.45;100.00;96551.75;4914322;29;20401;-80
2022/07/05 05:30:11;;;;;;;7.13;4.15;;;;;;;17.50;100.00;96547.94;4913839;29;20048;-79
2022/07/05 05:32:38;;;;;;;9.20;5.30;;;;;;;17.47;100.00;96554.94;4915756;29;20055;-79
2022/07/05 05:35:06;;;;;;;8.70;4.68;;;;;;;17.42;100.00;96542.25;4917710;29;20056;-80
2022/07/05 05:37:32;;;;;;;8.98;4.30;;;;;;;17.58;100.00;96549.69;4918230;29;20043;-79
2022/07/05 05:39:59;;;;;;;6.55;3.97;;;;;;;17.59;100.00;96548.50;4919553;29;20496;-79
2022/07/05 05:42:25;;;;;;;7.47;4.28;;;;;;;17.59;100.00;96551.28;4907374;29;20048;-79
2022/07/05 05:44:53;;;;;;;6.15;4.55;;;;;;;17.44;100.00;96552.91;4909416;29;20465;-79
2022/07/05 05:47:19;;;;;;;7.68;4.30;;;;;;;17.57;100.00;96550.84;4909748;29;20057;-80
2022/07/05 05:49:46;;;;;;;11.95;5.00;;;;;;;17.65;100.00;96556.16;4909592;29;20048;-80
2022/07/05 05:52:12;;;;;;;5.97;4.30;;;;;;;17.80;100.00;96557.31;4905470;29;20063;-80
2022/07/05 05:54:38;;;;;;;8.20;4.35;;;;;;;17.90;100.00;96562.22;4904790;29;20052;-80
2022/07/05 05:57:05;;;;;;;7.95;4.82;;;;;;;18.00;100.00;96561.66;4904915;29;20064;-80
2022/07/05 05:59:31;;;;;;;6.75;4.70;;;;;;;18.01;100.00;96562.50;4902002;29;20100;-81
2022/07/05 06:01:59;;;;;;;5.15;4.05;;;;;;;18.06;100.00;96570.44;4885405;29;20075;-79
2022/07/05 06:04:26;;;;;;;6.25;4.13;;;;;;;17.97;100.00;96556.09;4900023;29;20053;-78
2022/07/05 06:06:52;;;;;;;4.93;3.72;;;;;;;18.17;100.00;96570.69;4900396;29;20049;-80
2022/07/05 06:09:19;;;;;;;6.70;4.07;;;;;;;18.22;100.00;96564.91;4899865;29;20044;-81
2022/07/05 06:11:45;;;;;;;5.13;4.00;;;;;;;18.30;100.00;96563.06;4916290;29;20044;-79
2022/07/05 06:14:12;;;;;;;7.88;5.07;;;;;;;18.02;99.98;96572.34;4917338;29;20264;-79
2022/07/05 06:16:39;;;;;;;8.32;5.43;;;;;;;17.99;100.00;96571.09;4917555;29;20040;-78
2022/07/05 06:19:06;;;;;;;6.50;4.43;;;;;;;18.05;100.00;96573.56;4917818;29;20079;-80
2022/07/05 06:21:33;;;;;;;8.45;5.50;;;;;;;18.04;100.00;96574.75;4917620;29;20620;-79
2022/07/05 06:23:59;;;;;;;8.55;5.68;;;;;;;18.07;100.00;96574.81;4917900;29;20044;-80
2022/07/05 06:26:25;;;;;;;10.25;5.70;;;;;;;18.31;100.00;96575.69;4917079;29;20048;-78
2022/07/05 06:28:52;;;;;;;7.32;5.30;;;;;;;18.29;98.23;96581.56;4917577;29;20040;-79
2022/07/05 06:31:18;;;;;;;8.43;4.78;;;;;;;18.42;98.58;96585.78;4898530;29;20052;-77
2022/07/05 06:33:45;;;;;;;9.70;5.55;;;;;;;18.37;97.15;96577.78;4915981;29;20055;-78
2022/07/05 06:36:12;;;;;;;7.50;5.22;;;;;;;18.40;96.84;96585.34;4915360;29;20056;-78
2022/07/05 06:38:39;;;;;;;6.68;4.35;;;;;;;18.56;96.42;96592.75;4915900;29;20051;-80
2022/07/05 06:41:05;;;;;;;8.70;5.10;;;;;;;18.54;96.49;96584.03;4905788;29;20640;-78
2022/07/05 06:43:32;;;;;;;5.50;4.35;;;;;;;18.65;96.88;96598.84;4895461;29;20052;-79
2022/07/05 06:45:59;;;;;;;6.97;5.38;;;;;;;18.55;95.88;96591.16;4896512;29;20059;-78
2022/07/05 06:48:26;;;;;;;9.52;4.68;;;;;;;18.55;94.98;96596.66;4896209;29;20217;-76
2022/07/05 06:50:52;;;;;;;6.82;5.07;;;;;;;18.54;93.53;96595.06;4896797;29;20044;-76
2022/07/05 06:53:20;;;;;;;4.53;3.67;;;;;;;18.55;91.12;96596.66;4896259;29;20049;-77
2022/07/05 06:55:46;;;;;;;6.50;3.90;;;;;;;18.57;91.37;96594.34;4896456;29;20529;-77
2022/07/05 06:58:13;;;;;;;5.75;3.70;;;;;;;18.56;89.72;96603.78;4896180;29;20057;-76
2022/07/05 07:00:39;;;;;;;6.25;3.72;;;;;;;18.66;89.63;96595.72;4896405;29;20048;-76
2022/07/05 07:03:06;;;;;;;7.72;3.42;;;;;;;18.77;89.21;96601.47;4896187;29;20052;-76
2022/07/05 07:05:32;;;;;;;6.82;3.60;;;;;;;18.85;88.40;96602.41;4896739;29;20067;-75
2022/07/05 07:10:44;;;;;;;5.75;4.07;;;;;;;18.86;89.11;96607.56;4914996;29;20110;-76
2022/07/05 07:13:11;;;;;;;8.55;4.07;;;;;;;18.98;90.16;96614.84;4914638;29;20563;-76
2022/07/05 07:15:38;;;;;;;7.03;4.10;;;;;;;19.11;88.50;96607.22;4915059;29;20051;-75
2022/07/05 07:18:05;;;;;;;7.13;4.15;;;;;;;19.12;88.08;96614.34;4914888;29;20104;-76
2022/07/05 07:20:31;;;;;;;4.60;3.17;;;;;;;18.95;85.50;96610.06;4914615;29;20670;-77
2022/07/05 07:22:58;;;;;;;6.63;3.40;;;;;;;18.98;88.96;96609.34;4915156;29;20048;-76
2022/07/05 07:25:25;;;;;;;6.95;3.53;;;;;;;19.09;87.61;96606.78;4914645;29;20048;-76
2022/07/05 07:27:55;;;;;;;8.70;4.10;;;;;;;19.20;87.87;96613.28;4914682;29;20056;-76
2022/07/05 07:30:23;;;;;;;6.30;3.42;;;;;;;19.18;84.99;96619.19;4914369;29;20076;-76
2022/07/05 07:32:50;;;;;;;5.53;3.42;;;;;;;19.26;87.47;96609.88;4914799;29;20424;-76
2022/07/05 07:35:16;;;;;;;8.40;3.90;;;;;;;19.26;87.83;96611.81;4914380;29;20059;-77
2022/07/05 07:37:43;;;;;;;8.00;3.83;;;;;;;19.29;85.54;96622.91;4914864;29;20051;-76
2022/07/05 07:40:10;;;;;;;5.30;3.28;;;;;;;19.30;84.34;96620.94;4896555;29;20049;-76
2022/07/05 07:42:37;;;;;;;6.15;3.08;;;;;;;19.42;82.08;96608.91;4896078;29;20052;-76
2022/07/05 07:45:06;;;;;;;6.03;3.47;;;;;;;19.49;83.44;96615.38;4895084;29;20040;-76
2022/07/05 07:47:34;;;;;;;7.30;3.83;;;;;;;19.67;86.14;96601.84;4895934;29;20043;-78
2022/07/05 07:50:00;;;;;;;5.18;3.70;;;;;;;19.76;83.47;96607.94;4895766;29;20115;-79
2022/07/05 07:52:27;;;;;;;6.65;3.13;;;;;;;19.77;83.42;96606.75;4895243;29;20056;-77
2022/07/05 07:54:53;;;;;;;7.47;3.10;;;;;;;19.92;79.91;96616.06;4894926;29;20071;-75
2022/07/05 07:57:20;;;;;;;7.05;2.95;;;;;;;19.97;79.02;96618.50;4895027;29;20048;-77
2022/07/05 07:59:46;;;;;;;11.15;3.10;;;;;;;19.90;78.46;96621.19;4895755;29;20044;-75
2022/07/05 08:02:14;;;;;;;9.43;3.53;;;;;;;19.96;79.51;96619.69;4895090;29;20056;-76
2022/07/05 08:04:41;;;;;;;8.40;3.13;;;;;;;20.15;80.17;96621.53;4895462;29;20045;-77
2022/07/05 08:07:07;;;;;;;5.32;3.10;;;;;;;20.33;80.94;96616.25;4895098;29;20044;-76
2022/07/05 08:09:33;;;;;;;4.60;2.97;;;;;;;20.30;80.39;96622.50;4908126;29;20051;-76
2022/07/05 08:12:00;;;;;;;5.07;3.25;;;;;;;20.40;78.80;96621.06;4914454;29;20044;-77
2022/07/05 08:14:26;;;;;;;4.25;2.85;;;;;;;20.42;77.86;96627.81;4913804;29;20044;-77
2022/07/05 08:16:53;;;;;;;6.15;2.95;;;;;;;20.66;76.12;96623.78;4914127;29;20044;-76
2022/07/05 08:22:07;;;;;;;6.43;2.80;;;;;;;21.31;75.44;96622.56;4913882;29;20054;-77
2022/07/05 08:24:34;;;;;;;4.80;3.35;;;;;;;21.61;72.03;96614.91;4914300;29;20055;-77
2022/07/05 08:27:01;;;;;;;9.00;3.28;;;;;;;21.76;68.94;96620.53;4913979;29;20567;-77
2022/07/05 08:29:27;;;;;;;5.70;2.85;;;;;;;22.02;70.33;96616.78;4913738;29;20071;-77
2022/07/05 08:31:54;;;;;;;5.63;2.92;;;;;;;22.27;71.69;96619.72;4913841;29;20051;-76
2022/07/05 08:34:21;;;;;;;6.60;2.60;;;;;;;22.49;71.24;96615.88;4913583;29;20055;-77
2022/07/05 08:36:48;;;;;;;5.40;3.30;;;;;;;21.91;71.39;96619.47;4913928;29;20500;-77
2022/07/05 08:39:16;;;;;;;6.68;2.60;;;;;;;21.90;73.01;96617.88;4913318;29;20048;-77
2022/07/05 08:41:43;;;;;;;9.75;2.72;;;;;;;22.29;76.75;96620.13;4913882;29;20521;-77
2022/07/05 08:44:10;;;;;;;3.72;2.30;;;;;;;22.51;67.93;96623.81;4913572;29;20056;-77
2022/07/05 08:46:39;;;;;;;3.08;2.30;;;;;;;22.88;68.04;96626.38;4913767;29;20117;-78
2022/07/05 08:49:06;;;;;;;5.93;2.58;;;;;;;23.05;63.86;96622.84;4913389;29;20055;-76
2022/07/05 08:51:38;;;;;;;5.43;2.65;;;;;;;22.81;63.27;96626.31;4913673;29;20044;-77
2022/07/05 08:54:06;;;;;;;5.97;2.33;;;;;;;23.00;63.38;96617.69;4913641;29;20067;-76
2022/07/05 08:56:34;;;;;;;3.17;2.20;;;;;;;23.16;61.18;96615.34;4913736;29;20040;-79
2022/07/05 08:59:01;;;;;;;3.70;2.13;;;;;;;23.34;61.70;96625.72;4913499;29;20130;-78
2022/07/05 09:01:31;;;;;;;6.70;2.83;;;;;;;23.59;67.34;96618.16;4913541;29;20055;-79
2022/07/05 09:04:02;;;;;;;5.15;2.30;;;;;;;23.62;60.52;96620.16;4913946;29;20055;-79
2022/07/05 09:06:29;;;;;;;4.72;1.90;;;;;;;23.79;56.81;96618.59;4914555;29;20047;-78
2022/07/05 09:08:59;;;;;;;5.53;1.67;;;;;;;23.77;62.31;96622.97;4917034;29;20416;-79
2022/07/05 09:11:31;;;;;;;4.90;2.15;;;;;;;23.74;57.01;96620.97;4916837;29;20500;-78
2022/07/05 09:13:58;;;;;;;3.88;2.20;;;;;;;23.67;54.88;96619.00;4917302;29;20047;-78
2022/07/05 09:16:25;;;;;;;4.43;2.20;;;;;;;23.81;59.13;96621.00;4916599;29;20044;-78
2022/07/05 09:18:53;;;;;;;3.25;1.88;;;;;;;24.08;56.80;96622.16;4917237;29;20044;-78
2022/07/05 09:21:23;;;;;;;3.45;1.88;;;;;;;24.12;52.11;96625.72;4916400;29;20063;-79
2022/07/05 09:23:56;;;;;;;4.28;1.80;;;;;;;24.27;57.45;96626.47;4916876;29;20397;-78
2022/07/05 09:26:32;;;;;;;5.75;2.00;;;;;;;24.18;49.97;96624.13;4916483;29;20075;-79
2022/07/05 09:28:59;;;;;;;4.85;1.70;;;;;;;24.16;55.21;96623.72;4917028;29;20493;-77
2022/07/05 09:31:30;;;;;;;3.00;1.70;;;;;;;24.24;54.65;96627.28;4916188;29;20071;-77
2022/07/05 09:34:07;;;;;;;3.55;1.60;;;;;;;24.38;52.91;96618.94;4917310;29;20044;-77
2022/07/05 09:36:52;;;;;;;2.67;1.45;;;;;;;24.01;50.52;96624.91;4916883;29;20048;-78
2022/07/05 09:39:34;;;;;;;6.88;1.85;;;;;;;24.13;50.01;96632.88;4915163;29;20044;-78
2022/07/05 09:42:11;;;;;;;6.28;1.63;;;;;;;24.09;47.08;96626.50;4916963;29;20048;-78
2022/07/05 09:44:38;;;;;;;5.32;1.85;;;;;;;24.34;54.21;96631.25;4916472;29;20064;-78
2022/07/05 09:47:12;;;;;;;3.42;1.77;;;;;;;24.55;52.03;96620.06;4916186;29;20056;-78
2022/07/05 09:49:40;;;;;;;3.03;1.80;;;;;;;24.36;48.58;96618.53;4916586;29;20135;-78
2022/07/05 09:52:06;;;;;;;4.00;2.00;;;;;;;24.41;47.15;96615.34;4907739;29;20159;-77
2022/07/05 09:54:33;;;;;;;3.83;1.70;;;;;;;24.24;47.50;96627.28;4897810;29;20044;-77
2022/07/05 09:56:59;;;;;;;3.70;1.50;;;;;;;24.07;45.26;96630.91;4897716;29;20063;-77
2022/07/05 09:59:27;;;;;;;2.70;1.70;;;;;;;23.91;42.81;96628.53;4897219;29;20055;-78
2022/07/05 10:01:54;;;;;;;4.38;1.75;;;;;;;24.13;46.39;96626.50;4897729;29;20048;-78
2022/07/05 10:04:20;;;;;;;2.92;1.40;;;;;;;24.20;49.42;96632.84;4897374;29;20052;-77
2022/07/05 10:06:47;;;;;;;3.17;1.45;;;;;;;24.49;52.59;96615.34;4897329;29;20049;-77
2022/07/05 10:09:14;;;;;;;3.78;1.35;;;;;;;24.62;46.56;96617.25;4897029;29;20385;-77
2022/07/05 10:11:42;;;;;;;5.18;1.58;;;;;;;24.63;46.13;96616.06;4897425;29;20668;-78
2022/07/05 10:14:15;;;;;;;1.80;1.48;;;;;;;24.71;44.83;96617.63;4897214;29;20056;-78
2022/07/05 10:16:47;;;;;;;2.75;1.70;;;;;;;24.55;49.08;96608.16;4897518;29;20416;-78
2022/07/05 10:19:20;;;;;;;4.80;1.40;;;;;;;24.60;49.76;96611.31;4895910;29;20049;-78
2022/07/05 10:21:47;;;;;;;3.58;1.50;;;;;;;24.77;51.84;96614.41;4897212;29;20068;-78
2022/07/05 10:24:14;;;;;;;7.97;1.52;;;;;;;24.81;44.82;96609.63;4896698;29;20045;-78
2022/07/05 10:26:41;;;;;;;4.75;1.23;;;;;;;24.99;44.93;96622.25;4896879;29;20056;-78
2022/07/05 10:29:09;;;;;;;1.67;1.17;;;;;;;25.01;43.65;96613.50;4896721;29;20117;-78
2022/07/05 10:31:37;;;;;;;1.52;1.00;;;;;;;25.22;42.06;96619.00;4896918;29;20056;-78
2022/07/05 10:34:08;;;;;;;3.58;1.35;;;;;;;25.22;42.42;96612.63;4896550;29;20052;-78
2022/07/05 10:36:35;;;;;;;2.53;1.35;;;;;;;25.13;40.49;96620.63;4896611;29;20123;-77
2022/07/05 10:39:02;;;;;;;2.35;1.10;;;;;;;25.09;43.70;96623.44;4896394;29;20107;-77
2022/07/05 10:41:31;;;;;;;1.83;1.02;;;;;;;24.94;43.26;96621.88;4896981;29;20053;-76
2022/07/05 10:43:57;;;;;;;4.63;1.25;;;;;;;24.75;42.30;96617.63;4896947;29;20045;-76
2022/07/05 10:46:34;;;;;;;1.50;1.00;;;;;;;24.80;40.61;96619.19;4896379;29;20048;-78
2022/07/05 10:49:14;;;;;;;1.90;1.17;;;;;;;25.01;41.72;96619.09;4896756;29;20041;-77
2022/07/05 10:51:41;;;;;;;2.47;1.10;;;;;;;25.11;40.97;96621.06;4896178;29;20055;-80
2022/07/05 10:54:08;;;;;;;1.88;0.88;;;;;;;25.26;39.79;96621.72;4896102;29;20131;-77
2022/07/05 10:56:35;;;;;;;2.55;0.88;;;;;;;25.24;36.92;96624.94;4896356;29;20496;-78
2022/07/05 10:59:09;;;;;;;1.60;0.90;;;;;;;25.24;37.48;96621.34;4896072;29;20044;-76
2022/07/05 11:01:40;;;;;;;2.42;1.00;;;;;;;25.06;39.86;96624.25;4896533;29;20100;-77
2022/07/05 11:04:35;;;;;;;2.97;0.90;;;;;;;25.10;41.85;96627.00;4895860;29;20052;-77
2022/07/05 11:07:02;;;;;;;1.38;0.82;;;;;;;25.31;40.97;96615.72;4895949;29;20044;-77
2022/07/05 11:09:29;;;;;;;3.10;0.90;;;;;;;25.25;39.92;96611.78;4896267;29;20040;-78
2022/07/05 11:12:07;;;;;;;3.97;0.90;;;;;;;25.34;41.86;96614.13;4896294;29;20047;-78
2022/07/05 11:14:37;;;;;;;2.85;0.95;;;;;;;25.53;33.35;96621.97;4896179;29;20036;-77
2022/07/05 11:17:36;;;;;;;2.30;1.15;;;;;;;25.41;37.28;96614.88;4895612;29;20519;-77
2022/07/05 11:20:10;;;;;;;1.63;0.95;;;;;;;25.39;35.92;96610.91;4895631;29;20127;-78
2022/07/05 11:22:39;;;;;;;1.55;0.95;;;;;;;25.48;37.97;96609.25;4896103;29;20508;-78
2022/07/05 11:25:06;;;;;;;1.77;1.10;;;;;;;25.15;33.89;96605.06;4895827;29;20144;-76
2022/07/05 11:27:34;;;;;;;3.80;1.00;;;;;;;25.23;35.33;96603.84;4895967;29;20545;-78
2022/07/05 11:30:01;;;;;;;3.95;1.20;;;;;;;25.13;36.27;96601.91;4895050;29;20400;-77
2022/07/05 11:32:37;;;;;;;2.65;1.00;;;;;;;25.24;39.84;96605.44;4895266;29;20489;-77
2022/07/05 11:35:16;;;;;;;3.72;1.23;;;;;;;25.39;37.70;96596.97;4894885;29;20063;-77
2022/07/05 11:38:00;;;;;;;1.77;0.98;;;;;;;25.41;40.95;96597.34;4895811;29;20044;-77